This is the latest recevied weather packets stored in our database for station/object EPGD. If no packets are shown the sender has not sent any weather packets the latest 10 day(s).
| Time | Temp. | Humidity | Pressure | Rain* | Wind** | Luminosity | Snow |
|---|---|---|---|---|---|---|---|
| 1777973704 | 16.67° C | 41% | 1010 hPa | - | - | - | - |
| 1777971904 | 15.56° C | 41% | 1010 hPa | - | - | - | - |
| 1777970104 | 15° C | 41% | 1011 hPa | - | - | - | - |
| 1777968304 | 15° C | 41% | 1011 hPa | - | - | - | - |
| 1777966503 | 13.89° C | 38% | 1011 hPa | - | - | - | - |
| 1777964704 | 13.89° C | 44% | 1011 hPa | - | - | - | - |
| 1777962903 | 11.67° C | 57% | 1011 hPa | - | - | - | - |
| 1777961104 | 10.56° C | 76% | 1011 hPa | - | - | - | - |
| 1777959304 | 10° C | 76% | 1011 hPa | - | - | - | - |
| 1777957503 | 8.89° C | 81% | 1011 hPa | - | - | - | - |
| 1777955704 | 6.67° C | 93% | 1011 hPa | - | - | - | - |
| 1777953904 | 5.56° C | 100% | 1011 hPa | - | - | - | - |
| 1777952104 | 6.67° C | 93% | 1011 hPa | - | - | - | - |
| 1777950304 | 6.67° C | 93% | 1011 hPa | - | - | - | - |
| 1777948503 | 6.67° C | 93% | 1011 hPa | - | - | - | - |
| 1777946704 | 7.78° C | 87% | 1011 hPa | - | - | - | - |
| 1777944903 | 7.78° C | 87% | 1011 hPa | - | - | - | - |
| 1777943104 | 7.78° C | 93% | 1011 hPa | - | - | - | - |
| 1777941303 | 8.89° C | 87% | 1011 hPa | - | - | - | - |
| 1777939504 | 8.89° C | 87% | 1011 hPa | - | - | - | - |
| 1777937704 | 10° C | 87% | 1011 hPa | - | - | - | - |
| 1777935904 | 10° C | 87% | 1012 hPa | - | - | - | - |
| 1777934104 | 10° C | 87% | 1012 hPa | - | - | - | - |
| 1777932304 | 10° C | 87% | 1012 hPa | - | - | - | - |
| 1777930503 | 10.56° C | 87% | 1012 hPa | - | - | - | - |
* Rain since midnight (hover to see other rain measurements)
** Current wind speed in m/s (hover to see current wind gust speed)